This is the latest recevied weather packets stored in our database for station/object HARMALA. If no packets are shown the sender has not sent any weather packets the latest 10 day(s).
| Time | Temp. | Humidity | Pressure | Rain* | Wind** | Luminosity | Snow |
|---|---|---|---|---|---|---|---|
| 1777538814 | 11.67° C | 61% | 1020.6 hPa | 0 mm | - | - | - |
| 1777537615 | 11.67° C | 60% | 1020.6 hPa | 0 mm | - | - | - |
| 1777536415 | 11.11° C | 63% | 1020.4 hPa | 0 mm | - | - | - |
| 1777535215 | 10° C | 68% | 1020.5 hPa | 0 mm | - | - | - |
| 1777534014 | 8.89° C | 71% | 1020.5 hPa | 0 mm | - | - | - |
| 1777532814 | 8.89° C | 72% | 1020.6 hPa | 0 mm | - | - | - |
| 1777531614 | 7.22° C | 80% | 1020.7 hPa | 0 mm | - | - | - |
| 1777530415 | 6.11° C | 84% | 1020.8 hPa | 0 mm | - | - | - |
| 1777529214 | 5.56° C | 85% | 1020.8 hPa | 0 mm | - | - | - |
| 1777528014 | 5° C | 87% | 1020.7 hPa | 0 mm | - | - | - |
| 1777526814 | 4.44° C | 88% | 1020.5 hPa | 0 mm | - | - | - |
| 1777525614 | 4.44° C | 89% | 1020.7 hPa | 0 mm | - | - | - |
| 1777524414 | 3.89° C | 90% | 1021.1 hPa | 0 mm | - | - | - |
| 1777523214 | 3.89° C | 90% | 1021.2 hPa | 0 mm | - | - | - |
| 1777522014 | 3.89° C | 90% | 1021.1 hPa | 0 mm | - | - | - |
| 1777520814 | 3.33° C | 90% | 1021 hPa | 0 mm | - | - | - |
| 1777519614 | 3.33° C | 89% | 1021.2 hPa | 0 mm | - | - | - |
| 1777518414 | 3.33° C | 89% | 1021.4 hPa | 0 mm | - | - | - |
| 1777517214 | 3.33° C | 89% | 1021.4 hPa | 0 mm | - | - | - |
| 1777516014 | 3.33° C | 89% | 1021.5 hPa | 0 mm | - | - | - |
| 1777514813 | 3.33° C | 88% | 1021.6 hPa | 0 mm | - | - | - |
| 1777513614 | 3.33° C | 87% | 1021.8 hPa | 0 mm | - | - | - |
| 1777512414 | 3.33° C | 85% | 1021.6 hPa | 0 mm | - | - | - |
| 1777511213 | 3.33° C | 83% | 1021.9 hPa | 0 mm | - | - | - |
| 1777510013 | 3.33° C | 84% | 1022 hPa | 0 mm | - | - | - |
* Rain latest hour (hover to see other rain measurements)
** Current wind speed in m/s (hover to see current wind gust speed)